createdAt,value
2019-02-08T00:00:34.195Z,0.00
2019-02-08T00:01:34.175Z,0.00
2019-02-08T00:02:34.161Z,0.00
2019-02-08T00:03:34.146Z,0.00
2019-02-08T00:04:34.134Z,0.00
2019-02-08T00:05:34.144Z,0.00
2019-02-08T00:06:34.112Z,0.00
2019-02-08T00:07:34.114Z,0.00
2019-02-08T00:08:34.099Z,0.00
2019-02-08T00:09:34.083Z,0.00
2019-02-08T00:10:34.067Z,0.00
2019-02-08T00:11:34.086Z,0.00
2019-02-08T00:12:34.051Z,0.00
2019-02-08T00:13:34.034Z,0.00
2019-02-08T00:14:34.024Z,0.00
2019-02-08T00:15:34.014Z,0.00
2019-02-08T00:16:34.015Z,0.00
2019-02-08T00:17:33.992Z,0.00
2019-02-08T00:18:33.982Z,0.00
2019-02-08T00:19:33.966Z,0.00
2019-02-08T00:20:33.959Z,0.00
2019-02-08T00:21:33.966Z,0.00
2019-02-08T00:22:33.934Z,0.00
2019-02-08T00:23:33.928Z,0.00
2019-02-08T00:24:33.916Z,0.00
2019-02-08T00:25:33.931Z,0.00
2019-02-08T00:26:33.905Z,0.00
2019-02-08T00:27:33.889Z,0.00
2019-02-08T00:28:33.866Z,0.00
2019-02-08T00:29:33.866Z,0.00
2019-02-08T00:30:33.850Z,0.00
2019-02-08T00:31:33.858Z,0.00
2019-02-08T00:32:33.822Z,0.00
2019-02-08T00:33:33.817Z,0.00
2019-02-08T00:34:33.799Z,0.00
2019-02-08T00:35:33.792Z,0.00
2019-02-08T00:36:33.803Z,0.00
2019-02-08T00:37:33.779Z,0.00
2019-02-08T00:38:33.761Z,0.00
2019-02-08T00:39:33.742Z,0.00
2019-02-08T00:40:33.736Z,0.00
2019-02-08T00:41:33.719Z,0.00
2019-02-08T00:42:33.722Z,0.00
2019-02-08T00:43:33.714Z,0.00
2019-02-08T00:44:33.689Z,0.00
2019-02-08T00:45:33.677Z,0.00
2019-02-08T00:46:33.664Z,0.00
2019-02-08T00:47:33.670Z,0.00
2019-02-08T00:48:33.679Z,0.00
2019-02-08T00:49:33.635Z,0.00
2019-02-08T00:50:33.621Z,0.00
2019-02-08T00:51:33.609Z,0.00
2019-02-08T00:52:33.610Z,0.00
2019-02-08T00:53:33.796Z,0.00
2019-02-08T00:54:33.579Z,0.00
2019-02-08T00:55:33.567Z,0.00
2019-02-08T00:56:33.552Z,0.00
2019-02-08T00:57:33.552Z,0.00
2019-02-08T00:58:33.528Z,0.00
2019-02-08T00:59:33.518Z,0.00
2019-02-08T01:00:33.515Z,0.00
2019-02-08T01:01:33.498Z,0.00
2019-02-08T01:02:33.509Z,0.00
2019-02-08T01:03:33.476Z,0.00
2019-02-08T01:04:33.462Z,0.00
2019-02-08T01:05:33.450Z,0.00
2019-02-08T01:06:33.444Z,0.00
2019-02-08T01:07:33.441Z,0.00
2019-02-08T01:08:33.417Z,0.00
2019-02-08T01:09:33.406Z,0.00
2019-02-08T01:10:33.397Z,0.00
2019-02-08T01:11:33.385Z,0.00
2019-02-08T01:12:33.383Z,0.00
2019-02-08T01:13:33.367Z,0.00
2019-02-08T01:14:33.352Z,0.00
2019-02-08T01:15:33.340Z,0.00
2019-02-08T01:16:33.329Z,0.00
2019-02-08T01:17:33.328Z,0.00
2019-02-08T01:18:33.305Z,0.00
2019-02-08T01:19:33.304Z,0.00
2019-02-08T01:20:33.282Z,0.00
2019-02-08T01:21:33.272Z,0.00
2019-02-08T01:22:33.289Z,0.00
2019-02-08T01:23:40.874Z,0.00
2019-02-08T01:24:34.241Z,0.00
2019-02-08T01:25:33.240Z,0.00
2019-02-08T01:26:33.216Z,0.00
2019-02-08T01:27:33.205Z,0.00
2019-02-08T01:28:33.206Z,0.00
2019-02-08T01:29:33.184Z,0.00
2019-02-08T01:30:33.173Z,0.00
2019-02-08T01:31:33.196Z,0.00
2019-02-08T01:32:33.150Z,0.00
2019-02-08T01:33:33.160Z,0.00
2019-02-08T01:34:33.133Z,0.00
2019-02-08T01:35:33.128Z,0.00
2019-02-08T01:36:33.103Z,0.00
2019-02-08T01:37:33.095Z,0.00
2019-02-08T01:38:33.092Z,0.00
2019-02-08T01:39:33.071Z,0.00
2019-02-08T01:40:33.059Z,0.00
2019-02-08T01:41:33.049Z,0.00
2019-02-08T01:42:33.038Z,0.00
2019-02-08T01:43:33.037Z,0.00
2019-02-08T01:44:33.018Z,0.00
2019-02-08T01:45:33.011Z,0.00
2019-02-08T01:46:32.992Z,0.00
2019-02-08T01:47:32.984Z,0.00
2019-02-08T01:48:32.982Z,0.00
2019-02-08T01:49:32.959Z,0.00
2019-02-08T01:50:32.948Z,0.00
2019-02-08T01:51:32.941Z,0.00
2019-02-08T01:52:32.929Z,0.00
2019-02-08T01:53:32.929Z,0.00
2019-02-08T01:54:32.904Z,0.00
2019-02-08T01:55:32.894Z,0.00
2019-02-08T01:56:32.889Z,0.00
2019-02-08T01:57:32.873Z,0.00
2019-02-08T01:58:32.876Z,0.00
2019-02-08T01:59:32.857Z,0.00
2019-02-08T02:00:32.843Z,0.00
2019-02-08T02:01:32.830Z,0.00
2019-02-08T02:02:32.823Z,0.00
2019-02-08T02:03:32.820Z,0.00
2019-02-08T02:04:32.794Z,0.00
2019-02-08T02:05:32.782Z,0.00
2019-02-08T02:06:32.770Z,0.00
2019-02-08T02:07:32.758Z,0.00
2019-02-08T02:08:32.759Z,0.00
2019-02-08T02:09:32.738Z,0.00
2019-02-08T02:10:32.732Z,0.00
2019-02-08T02:11:32.725Z,0.00
2019-02-08T02:12:32.704Z,0.00
2019-02-08T02:13:32.692Z,0.00
2019-02-08T02:14:32.702Z,0.00
2019-02-08T02:15:32.673Z,0.00
2019-02-08T02:16:32.657Z,0.00
2019-02-08T02:17:32.647Z,0.00
2019-02-08T02:18:32.639Z,0.00
2019-02-08T02:19:32.637Z,0.00
2019-02-08T02:20:32.616Z,0.00
2019-02-08T02:21:32.618Z,0.00
2019-02-08T02:22:32.591Z,0.00
2019-02-08T02:23:32.579Z,0.00
2019-02-08T02:24:32.580Z,0.00
2019-02-08T02:25:32.557Z,0.00
2019-02-08T02:26:32.545Z,0.00
2019-02-08T02:27:32.539Z,0.00
2019-02-08T02:28:32.525Z,0.00
2019-02-08T02:29:32.525Z,0.00
2019-02-08T02:30:32.512Z,0.00
2019-02-08T02:31:32.504Z,0.00
2019-02-08T02:32:32.481Z,0.00
2019-02-08T02:33:32.470Z,0.00
2019-02-08T02:34:32.476Z,0.00
2019-02-08T02:35:32.447Z,0.00
2019-02-08T02:36:32.434Z,0.00
2019-02-08T02:37:32.427Z,0.00
2019-02-08T02:38:32.423Z,0.00
2019-02-08T02:39:32.414Z,0.00
2019-02-08T02:40:32.399Z,0.00
2019-02-08T02:41:32.379Z,0.00
2019-02-08T02:42:32.373Z,0.00
2019-02-08T02:43:32.612Z,0.00
2019-02-08T02:44:32.367Z,0.00
2019-02-08T02:45:32.347Z,0.00
2019-02-08T02:46:32.325Z,0.00
2019-02-08T02:47:32.311Z,0.00
2019-02-08T02:48:32.303Z,0.00
2019-02-08T02:49:32.296Z,0.00
2019-02-08T02:50:32.311Z,0.00
2019-02-08T02:51:32.273Z,0.00
2019-02-08T02:52:32.267Z,0.00
2019-02-08T02:53:32.245Z,0.00
2019-02-08T02:54:32.247Z,0.00
2019-02-08T02:55:32.246Z,0.00
2019-02-08T02:56:32.225Z,0.00
2019-02-08T02:57:32.200Z,0.00
2019-02-08T02:58:32.189Z,0.00
2019-02-08T02:59:32.179Z,0.00
2019-02-08T03:00:32.178Z,0.00
2019-02-08T03:01:32.196Z,0.00
2019-02-08T03:02:32.145Z,0.00
2019-02-08T03:03:32.135Z,0.00
2019-02-08T03:04:32.122Z,0.00
2019-02-08T03:05:32.121Z,0.00
2019-02-08T03:06:32.121Z,0.00
2019-02-08T03:07:32.086Z,0.00
2019-02-08T03:08:32.084Z,0.00
2019-02-08T03:09:32.066Z,0.00
2019-02-08T03:10:32.068Z,0.00
2019-02-08T03:11:32.050Z,0.00
2019-02-08T03:12:32.031Z,0.00
2019-02-08T03:13:32.021Z,0.00
2019-02-08T03:14:32.021Z,0.00
2019-02-08T03:15:32.014Z,0.00
2019-02-08T03:16:31.994Z,0.00
2019-02-08T03:17:31.979Z,0.00
2019-02-08T03:18:31.971Z,0.00
2019-02-08T03:19:31.952Z,0.00
2019-02-08T03:20:31.959Z,0.00
2019-02-08T03:21:31.936Z,0.00
2019-02-08T03:22:31.923Z,0.00
2019-02-08T03:23:31.914Z,0.00
2019-02-08T03:24:31.896Z,0.00
2019-02-08T03:25:31.887Z,0.00
2019-02-08T03:26:31.887Z,0.00
2019-02-08T03:27:31.866Z,0.00
2019-02-08T03:28:31.861Z,0.00
2019-02-08T03:29:31.849Z,0.00
2019-02-08T03:30:31.831Z,0.00
2019-02-08T03:31:31.833Z,0.00
2019-02-08T03:32:31.809Z,0.00
2019-02-08T03:33:31.797Z,0.00
2019-02-08T03:34:31.787Z,0.00
2019-02-08T03:35:31.777Z,0.00
2019-02-08T03:36:31.776Z,0.00
2019-02-08T03:37:31.750Z,0.00
2019-02-08T03:38:31.742Z,0.00
2019-02-08T03:39:31.730Z,0.00
2019-02-08T03:40:31.718Z,0.00
2019-02-08T03:41:31.760Z,0.00
2019-02-08T03:42:31.696Z,0.00
2019-02-08T03:43:31.684Z,0.00
2019-02-08T03:44:31.685Z,0.00
2019-02-08T03:45:31.679Z,0.00
2019-02-08T03:46:31.651Z,0.00
2019-02-08T03:47:31.654Z,0.00
2019-02-08T03:48:31.626Z,0.00
2019-02-08T03:49:31.621Z,0.00
2019-02-08T03:50:31.611Z,0.00
2019-02-08T03:51:31.593Z,0.00
2019-02-08T03:52:31.596Z,0.00
2019-02-08T03:53:31.569Z,0.00
2019-02-08T03:54:31.561Z,0.00
2019-02-08T03:55:31.552Z,0.00
2019-02-08T03:56:31.538Z,0.00
2019-02-08T03:57:31.535Z,0.00
2019-02-08T03:58:31.513Z,0.00
2019-02-08T03:59:31.505Z,0.00
2019-02-08T04:00:31.493Z,0.00
2019-02-08T04:01:31.492Z,0.00
2019-02-08T04:02:31.479Z,0.00
2019-02-08T04:03:31.456Z,0.00
2019-02-08T04:04:31.447Z,0.00
2019-02-08T04:05:31.435Z,0.00
2019-02-08T04:06:31.425Z,0.00
2019-02-08T04:07:31.430Z,0.00
2019-02-08T04:08:31.401Z,0.00
2019-02-08T04:09:31.390Z,0.00
2019-02-08T04:10:31.380Z,0.00
2019-02-08T04:11:31.369Z,0.00
2019-02-08T04:12:31.370Z,0.00
2019-02-08T04:13:31.350Z,0.00
2019-02-08T04:14:31.336Z,0.00
2019-02-08T04:15:31.322Z,0.00
2019-02-08T04:16:31.314Z,0.00
2019-02-08T04:17:31.315Z,0.00
2019-02-08T04:18:31.298Z,0.00
2019-02-08T04:19:31.281Z,0.00
2019-02-08T04:20:31.269Z,0.00
2019-02-08T04:21:31.259Z,0.00
2019-02-08T04:22:31.245Z,0.00
2019-02-08T04:23:31.253Z,0.00
2019-02-08T04:24:31.241Z,0.00
2019-02-08T04:25:31.216Z,0.00
2019-02-08T04:26:31.199Z,0.00
2019-02-08T04:27:31.188Z,0.00
2019-02-08T04:28:31.190Z,0.00
2019-02-08T04:29:31.169Z,0.00
2019-02-08T04:30:31.168Z,0.00
2019-02-08T04:31:31.159Z,0.00
2019-02-08T04:32:31.134Z,0.00
2019-02-08T04:33:31.138Z,0.00
2019-02-08T04:34:31.114Z,0.00
2019-02-08T04:35:31.106Z,0.00
2019-02-08T04:36:31.088Z,0.00
2019-02-08T04:37:31.077Z,0.00
2019-02-08T04:38:31.076Z,0.00
2019-02-08T04:39:31.061Z,0.00
2019-02-08T04:40:31.051Z,0.00
2019-02-08T04:41:31.042Z,0.00
2019-02-08T04:42:31.026Z,0.00
2019-02-08T04:43:31.019Z,0.00
2019-02-08T04:44:30.999Z,0.00
2019-02-08T04:45:30.986Z,0.00
2019-02-08T04:46:30.978Z,0.00
2019-02-08T04:47:30.981Z,0.00
2019-02-08T04:48:30.964Z,0.00
2019-02-08T04:49:30.942Z,0.00
2019-02-08T04:50:30.931Z,0.00
2019-02-08T04:51:30.925Z,0.00
2019-02-08T04:52:30.924Z,0.00
2019-02-08T04:53:30.911Z,0.00
2019-02-08T04:54:38.237Z,0.00
2019-02-08T04:55:31.877Z,0.00
2019-02-08T04:56:30.864Z,0.00
2019-02-08T04:57:30.856Z,0.00
2019-02-08T04:58:35.578Z,0.00
2019-02-08T04:59:31.828Z,0.00
2019-02-08T05:00:30.826Z,0.00
2019-02-08T05:01:30.807Z,0.00
2019-02-08T05:02:30.797Z,0.00
2019-02-08T05:03:30.793Z,0.00
2019-02-08T05:04:30.790Z,0.00
2019-02-08T05:05:30.783Z,0.00
2019-02-08T05:06:30.769Z,0.00
2019-02-08T05:07:30.781Z,0.00
2019-02-08T05:08:30.730Z,0.00
2019-02-08T05:09:30.733Z,0.00
2019-02-08T05:10:30.713Z,0.00
2019-02-08T05:11:30.696Z,0.00
2019-02-08T05:12:30.683Z,0.00
2019-02-08T05:13:30.710Z,0.00
2019-02-08T05:14:30.678Z,0.00
2019-02-08T05:15:30.651Z,0.00
2019-02-08T05:16:30.643Z,0.00
2019-02-08T05:17:30.628Z,0.00
2019-02-08T05:18:30.617Z,0.00
2019-02-08T05:19:30.622Z,0.00
2019-02-08T05:20:30.601Z,0.00
2019-02-08T05:21:30.586Z,0.00
2019-02-08T05:22:30.572Z,0.00
2019-02-08T05:23:30.569Z,0.00
2019-02-08T05:24:30.603Z,0.00
2019-02-08T05:25:30.538Z,0.00
2019-02-08T05:26:30.531Z,0.00
2019-02-08T05:27:30.518Z,0.00
2019-02-08T05:28:30.509Z,0.00
2019-02-08T05:29:30.618Z,0.00
2019-02-08T05:30:30.491Z,0.00
2019-02-08T05:31:30.473Z,0.00
2019-02-08T05:32:30.464Z,0.00
2019-02-08T05:33:30.451Z,0.00
2019-02-08T05:34:30.438Z,0.00
2019-02-08T05:35:30.449Z,0.00
2019-02-08T05:36:30.421Z,0.00
2019-02-08T05:37:30.423Z,0.00
2019-02-08T05:38:30.398Z,0.00
2019-02-08T05:39:30.381Z,0.00
2019-02-08T05:40:30.387Z,0.00
2019-02-08T05:41:30.359Z,0.00
2019-02-08T05:42:30.370Z,0.00
2019-02-08T05:43:30.344Z,0.00
2019-02-08T05:44:30.327Z,0.00
2019-02-08T05:45:30.330Z,0.00
2019-02-08T05:46:31.098Z,0.00
2019-02-08T05:47:30.295Z,0.00
2019-02-08T05:48:30.304Z,0.00
2019-02-08T05:49:30.285Z,0.00
2019-02-08T05:50:30.269Z,0.00
2019-02-08T05:51:30.246Z,0.00
2019-02-08T05:52:30.237Z,0.00
2019-02-08T05:53:30.232Z,0.00
2019-02-08T05:54:30.243Z,0.00
2019-02-08T05:55:30.229Z,0.00
2019-02-08T05:56:30.192Z,0.00
2019-02-08T05:57:30.181Z,0.00
2019-02-08T05:58:30.175Z,0.00
2019-02-08T05:59:30.171Z,0.00
2019-02-08T06:00:30.179Z,0.00
2019-02-08T06:01:30.139Z,0.00
2019-02-08T06:02:30.123Z,0.00
2019-02-08T06:03:30.112Z,0.00
2019-02-08T06:04:30.110Z,0.00
2019-02-08T06:05:30.120Z,0.00
2019-02-08T06:06:30.080Z,0.00
2019-02-08T06:07:30.066Z,0.00
2019-02-08T06:08:30.055Z,0.00
2019-02-08T06:09:30.045Z,0.00
2019-02-08T06:10:30.057Z,0.00
2019-02-08T06:11:30.044Z,0.00
2019-02-08T06:12:30.011Z,0.00
2019-02-08T06:13:30.008Z,0.00
2019-02-08T06:14:29.988Z,0.00
2019-02-08T06:15:29.982Z,0.00
2019-02-08T06:16:29.977Z,0.00
2019-02-08T06:17:29.955Z,0.00
2019-02-08T06:18:29.946Z,0.00
2019-02-08T06:19:29.952Z,0.00
2019-02-08T06:20:29.937Z,0.00
2019-02-08T06:21:29.926Z,0.00
2019-02-08T06:22:29.898Z,4.00
2019-02-08T06:23:29.896Z,4.00
2019-02-08T06:24:29.877Z,0.00
2019-02-08T06:25:29.865Z,4.00
2019-02-08T06:26:29.865Z,4.00
2019-02-08T06:27:29.860Z,4.00
2019-02-08T06:28:29.833Z,8.00
2019-02-08T06:29:29.821Z,8.00
2019-02-08T06:30:29.811Z,8.00
2019-02-08T06:31:29.817Z,8.00
2019-02-08T06:32:29.787Z,12.00
2019-02-08T06:33:29.795Z,16.00
2019-02-08T06:34:29.781Z,16.00
2019-02-08T06:35:29.753Z,16.00
2019-02-08T06:36:29.754Z,24.00
2019-02-08T06:37:29.732Z,24.00
2019-02-08T06:38:29.732Z,32.00
2019-02-08T06:39:29.709Z,40.00
2019-02-08T06:40:29.698Z,44.00
2019-02-08T06:41:29.700Z,52.00
2019-02-08T06:42:29.678Z,60.00
2019-02-08T06:43:29.674Z,68.00
2019-02-08T06:44:29.669Z,80.00
2019-02-08T06:45:29.647Z,88.00
2019-02-08T06:46:29.666Z,96.00
2019-02-08T06:47:29.630Z,108.00
2019-02-08T06:48:29.611Z,120.00
2019-02-08T06:49:29.598Z,132.00
2019-02-08T06:50:29.586Z,144.00
2019-02-08T06:51:29.577Z,152.00
2019-02-08T06:52:29.576Z,156.00
2019-02-08T06:53:29.554Z,160.00
2019-02-08T06:54:29.542Z,168.00
2019-02-08T06:55:29.537Z,180.00
2019-02-08T06:56:29.523Z,188.00
2019-02-08T06:57:29.524Z,200.00
2019-02-08T06:58:29.497Z,212.00
2019-02-08T06:59:29.486Z,224.00
2019-02-08T07:00:29.474Z,248.00
2019-02-08T07:01:29.467Z,260.00
2019-02-08T07:02:29.466Z,272.00
2019-02-08T07:03:29.441Z,288.00
2019-02-08T07:04:29.429Z,316.00
2019-02-08T07:05:29.418Z,352.00
2019-02-08T07:06:29.418Z,388.00
2019-02-08T07:07:29.408Z,424.00
2019-02-08T07:08:29.398Z,484.00
2019-02-08T07:09:29.374Z,524.00
2019-02-08T07:10:29.363Z,544.00
2019-02-08T07:11:29.355Z,588.00
2019-02-08T07:12:29.359Z,624.00
2019-02-08T07:13:29.329Z,664.00
2019-02-08T07:14:29.318Z,692.00
2019-02-08T07:15:29.305Z,720.00
2019-02-08T07:16:29.302Z,744.00
2019-02-08T07:17:29.299Z,764.00
2019-02-08T07:18:29.281Z,788.00
2019-02-08T07:19:29.268Z,812.00
2019-02-08T07:20:29.252Z,840.00
2019-02-08T07:21:29.252Z,864.00
2019-02-08T07:22:29.240Z,892.00
2019-02-08T07:23:29.235Z,916.00
2019-02-08T07:24:29.209Z,948.00
2019-02-08T07:25:29.197Z,968.00
2019-02-08T07:26:29.185Z,1012.00
2019-02-08T07:27:29.502Z,1056.00
2019-02-08T07:28:29.166Z,1104.00
2019-02-08T07:29:29.155Z,1200.00
2019-02-08T07:30:29.149Z,1388.00
2019-02-08T07:31:29.128Z,1556.00
2019-02-08T07:32:29.123Z,1600.00
2019-02-08T07:33:29.135Z,1628.00
2019-02-08T07:34:29.105Z,1544.00
2019-02-08T07:35:29.087Z,1640.00
2019-02-08T07:36:29.077Z,1792.00
2019-02-08T07:37:29.074Z,1808.00
2019-02-08T07:38:29.076Z,1780.00
2019-02-08T07:39:29.043Z,1800.00
2019-02-08T07:40:29.043Z,1800.00
2019-02-08T07:41:29.021Z,1764.00
2019-02-08T07:42:29.016Z,1772.00
2019-02-08T07:43:29.044Z,1760.00
2019-02-08T07:44:28.992Z,1668.00
2019-02-08T07:45:28.979Z,1544.00
2019-02-08T07:46:28.970Z,1540.00
2019-02-08T07:47:28.958Z,1516.00
2019-02-08T07:48:29.650Z,1384.00
2019-02-08T07:49:28.930Z,1308.00
2019-02-08T07:50:28.926Z,1596.00
2019-02-08T07:51:28.915Z,1696.00
2019-02-08T07:52:28.897Z,1764.00
2019-02-08T07:53:28.898Z,1844.00
2019-02-08T07:54:28.876Z,1952.00
2019-02-08T07:55:28.863Z,1784.00
2019-02-08T07:56:28.852Z,1764.00
2019-02-08T07:57:28.840Z,1836.00
2019-02-08T07:58:28.843Z,1740.00
2019-02-08T07:59:28.832Z,1900.00
2019-02-08T08:00:28.806Z,1944.00
2019-02-08T08:01:28.795Z,1864.00
2019-02-08T08:02:28.786Z,1880.00
2019-02-08T08:03:28.798Z,2064.00
2019-02-08T08:04:28.805Z,1980.00
2019-02-08T08:05:28.765Z,2160.00
2019-02-08T08:06:28.739Z,2096.00
2019-02-08T08:07:28.729Z,1988.00
2019-02-08T08:08:28.729Z,1732.00
2019-02-08T08:09:28.706Z,1968.00
2019-02-08T08:10:28.699Z,2056.00
2019-02-08T08:11:28.683Z,2084.00
2019-02-08T08:12:28.675Z,2188.00
2019-02-08T08:13:28.675Z,2084.00
2019-02-08T08:14:28.654Z,2236.00
2019-02-08T08:15:28.645Z,2040.00
2019-02-08T08:16:28.637Z,2360.00
2019-02-08T08:17:28.616Z,2368.00
2019-02-08T08:18:28.608Z,2544.00
2019-02-08T08:19:28.607Z,2724.00
2019-02-08T08:20:28.583Z,2976.00
2019-02-08T08:21:28.585Z,2864.00
2019-02-08T08:22:28.559Z,2684.00
2019-02-08T08:23:28.549Z,2748.00
2019-02-08T08:24:28.555Z,2708.00
2019-02-08T08:25:33.927Z,2836.00
2019-02-08T08:26:29.518Z,2912.00
2019-02-08T08:27:28.511Z,3268.00
2019-02-08T08:28:28.493Z,3304.00
2019-02-08T08:29:28.521Z,3060.00
2019-02-08T08:30:28.475Z,2632.00
2019-02-08T08:31:28.483Z,2440.00
2019-02-08T08:32:28.448Z,2108.00
2019-02-08T08:33:28.437Z,2260.00
2019-02-08T08:34:28.442Z,2136.00
2019-02-08T08:35:28.419Z,1800.00
2019-02-08T08:36:28.411Z,1540.00
2019-02-08T08:37:28.392Z,1604.00
2019-02-08T08:38:28.387Z,1832.00
2019-02-08T08:39:28.385Z,1756.00
2019-02-08T08:40:28.358Z,1868.00
2019-02-08T08:41:28.361Z,1776.00
2019-02-08T08:42:28.340Z,1644.00
2019-02-08T08:43:28.333Z,1812.00
2019-02-08T08:44:28.325Z,1744.00
2019-02-08T08:45:28.303Z,1932.00
2019-02-08T08:46:28.293Z,1896.00
2019-02-08T08:47:28.282Z,1748.00
2019-02-08T08:48:28.275Z,1872.00
2019-02-08T08:49:28.282Z,2064.00
2019-02-08T08:50:28.246Z,2556.00
2019-02-08T08:51:28.237Z,3012.00
2019-02-08T08:52:28.225Z,2648.00
2019-02-08T08:53:28.213Z,2220.00
2019-02-08T08:54:28.236Z,2448.00
2019-02-08T08:55:28.191Z,2664.00
2019-02-08T08:56:28.178Z,2732.00
2019-02-08T08:57:28.196Z,2340.00
2019-02-08T08:58:28.159Z,2408.00
2019-02-08T08:59:29.422Z,2380.00
2019-02-08T09:00:28.166Z,2068.00
2019-02-08T09:01:28.128Z,2144.00
2019-02-08T09:02:28.115Z,1896.00
2019-02-08T09:03:28.144Z,1964.00
2019-02-08T09:04:28.103Z,2024.00
2019-02-08T09:05:28.081Z,1956.00
2019-02-08T09:06:28.068Z,1992.00
2019-02-08T09:07:28.059Z,2196.00
2019-02-08T09:08:28.051Z,2336.00
2019-02-08T09:09:28.066Z,2700.00
2019-02-08T09:10:28.026Z,3248.00
2019-02-08T09:11:28.021Z,3564.00
2019-02-08T09:12:27.999Z,3588.00
2019-02-08T09:13:27.988Z,2920.00
2019-02-08T09:14:27.981Z,2968.00
2019-02-08T09:15:27.976Z,3628.00
2019-02-08T09:16:27.959Z,3680.00
2019-02-08T09:17:27.950Z,3084.00
2019-02-08T09:18:27.932Z,2880.00
2019-02-08T09:19:27.922Z,3012.00
2019-02-08T09:20:27.925Z,3164.00
2019-02-08T09:21:27.900Z,3384.00
2019-02-08T09:22:27.890Z,3228.00
2019-02-08T09:23:27.879Z,3420.00
2019-02-08T09:24:27.868Z,3012.00
2019-02-08T09:25:27.881Z,2392.00
2019-02-08T09:26:27.840Z,2328.00
2019-02-08T09:27:27.833Z,2380.00
2019-02-08T09:28:27.819Z,2548.00
2019-02-08T09:29:27.808Z,2700.00
2019-02-08T09:30:27.814Z,2640.00
2019-02-08T09:31:27.785Z,2676.00
2019-02-08T09:32:27.773Z,2912.00
2019-02-08T09:33:27.763Z,2804.00
2019-02-08T09:34:27.751Z,2744.00
2019-02-08T09:35:27.752Z,2840.00
2019-02-08T09:36:27.729Z,3120.00
2019-02-08T09:37:27.724Z,3076.00
2019-02-08T09:38:27.706Z,3000.00
2019-02-08T09:39:27.697Z,3060.00
2019-02-08T09:40:27.695Z,2860.00
2019-02-08T09:41:27.679Z,3084.00
2019-02-08T09:42:27.660Z,3192.00
2019-02-08T09:43:27.651Z,3292.00
2019-02-08T09:44:28.473Z,3700.00
2019-02-08T09:45:27.638Z,4096.00
2019-02-08T09:46:27.644Z,4244.00
2019-02-08T09:47:27.611Z,5088.00
2019-02-08T09:48:27.594Z,4536.00
2019-02-08T09:49:27.582Z,3864.00
2019-02-08T09:50:27.585Z,3984.00
2019-02-08T09:51:27.558Z,4496.00
2019-02-08T09:52:27.552Z,4504.00
2019-02-08T09:53:27.596Z,4508.00
2019-02-08T09:54:27.551Z,4764.00
2019-02-08T09:55:27.525Z,4612.00
2019-02-08T09:56:27.504Z,4752.00
2019-02-08T09:57:27.507Z,4928.00
2019-02-08T09:58:27.493Z,4912.00
2019-02-08T09:59:27.470Z,4764.00
2019-02-08T10:00:27.476Z,5244.00
2019-02-08T10:01:27.450Z,6168.00
2019-02-08T10:02:27.434Z,6108.00
2019-02-08T10:03:27.430Z,5504.00
2019-02-08T10:04:27.447Z,5260.00
2019-02-08T10:05:27.404Z,5232.00
2019-02-08T10:06:27.409Z,5108.00
2019-02-08T10:07:27.382Z,5052.00
2019-02-08T10:08:27.370Z,5268.00
2019-02-08T10:09:27.359Z,5748.00
2019-02-08T10:10:27.354Z,5600.00
2019-02-08T10:11:27.350Z,5548.00
2019-02-08T10:12:27.325Z,4956.00
2019-02-08T10:13:27.326Z,4688.00
2019-02-08T10:14:27.302Z,5056.00
2019-02-08T10:15:27.293Z,5268.00
2019-02-08T10:16:27.320Z,5280.00
2019-02-08T10:17:27.272Z,5428.00
2019-02-08T10:18:27.266Z,5812.00
2019-02-08T10:19:27.245Z,6280.00
2019-02-08T10:20:27.234Z,6760.00
2019-02-08T10:21:27.239Z,6640.00
2019-02-08T10:22:27.212Z,6604.00
2019-02-08T10:23:27.202Z,6580.00
2019-02-08T10:24:27.190Z,6408.00
2019-02-08T10:25:27.300Z,5792.00
2019-02-08T10:26:27.177Z,5688.00
2019-02-08T10:27:27.184Z,5852.00
2019-02-08T10:28:27.584Z,5480.00
2019-02-08T10:29:27.134Z,5460.00
2019-02-08T10:30:27.126Z,5412.00
2019-02-08T10:31:27.611Z,5776.00
2019-02-08T10:32:27.106Z,6308.00
2019-02-08T10:33:27.088Z,6552.00
2019-02-08T10:34:27.076Z,6892.00
2019-02-08T10:35:27.068Z,6584.00
2019-02-08T10:36:27.066Z,6628.00
2019-02-08T10:37:27.048Z,6504.00
2019-02-08T10:38:27.037Z,6276.00
2019-02-08T10:39:27.031Z,6012.00
2019-02-08T10:40:27.008Z,6096.00
2019-02-08T10:41:30.599Z,5904.00
2019-02-08T10:42:26.984Z,5668.00
2019-02-08T10:43:26.978Z,5252.00
2019-02-08T10:44:26.970Z,5196.00
2019-02-08T10:45:26.952Z,5416.00
2019-02-08T10:46:26.944Z,5544.00
2019-02-08T10:47:26.957Z,5976.00
2019-02-08T10:48:26.919Z,6052.00
2019-02-08T10:49:26.918Z,6648.00
2019-02-08T10:50:26.897Z,6536.00
2019-02-08T10:51:26.885Z,5636.00
2019-02-08T10:52:26.884Z,4852.00
2019-02-08T10:53:26.880Z,4612.00
2019-02-08T10:54:26.857Z,4756.00
2019-02-08T10:55:26.845Z,5188.00
2019-02-08T10:56:26.832Z,5356.00
2019-02-08T10:57:26.831Z,5268.00
2019-02-08T10:58:26.806Z,5500.00
2019-02-08T10:59:26.808Z,5624.00
2019-02-08T11:00:26.784Z,5368.00
2019-02-08T11:01:26.777Z,5612.00
2019-02-08T11:02:26.772Z,5884.00
2019-02-08T11:03:26.750Z,5648.00
2019-02-08T11:04:26.740Z,5588.00
2019-02-08T11:05:26.733Z,5752.00
2019-02-08T11:06:26.736Z,5748.00
2019-02-08T11:07:27.879Z,6212.00
2019-02-08T11:08:26.692Z,6668.00
2019-02-08T11:09:26.693Z,7560.00
2019-02-08T11:10:26.682Z,7904.00
2019-02-08T11:11:26.662Z,7156.00
2019-02-08T11:12:26.677Z,6164.00
2019-02-08T11:13:26.637Z,5784.00
2019-02-08T11:14:26.625Z,5712.00
2019-02-08T11:15:26.637Z,5340.00
2019-02-08T11:16:26.606Z,5408.00
2019-02-08T11:17:26.603Z,5584.00
2019-02-08T11:18:26.648Z,5244.00
2019-02-08T11:19:26.569Z,4620.00
2019-02-08T11:20:26.563Z,4568.00
2019-02-08T11:21:26.551Z,4624.00
2019-02-08T11:22:26.548Z,4504.00
2019-02-08T11:23:26.541Z,4828.00
2019-02-08T11:24:26.513Z,5156.00
2019-02-08T11:25:26.509Z,5424.00
2019-02-08T11:26:26.489Z,5896.00
2019-02-08T11:27:26.502Z,5960.00
2019-02-08T11:28:26.466Z,5720.00
2019-02-08T11:29:26.484Z,5660.00
2019-02-08T11:30:26.445Z,5608.00
2019-02-08T11:31:26.435Z,5656.00
2019-02-08T11:32:37.117Z,6000.00
2019-02-08T11:33:27.423Z,7100.00
2019-02-08T11:34:26.407Z,7736.00
2019-02-08T11:35:26.390Z,7744.00
2019-02-08T11:36:26.377Z,7692.00
2019-02-08T11:37:26.367Z,7288.00
2019-02-08T11:38:26.376Z,7268.00
2019-02-08T11:39:26.343Z,7452.00
2019-02-08T11:40:26.332Z,8344.00
2019-02-08T11:41:26.321Z,9240.00
2019-02-08T11:42:26.318Z,8788.00
2019-02-08T11:43:26.318Z,8148.00
2019-02-08T11:44:26.306Z,7976.00
2019-02-08T11:45:26.277Z,8060.00
2019-02-08T11:46:26.265Z,7924.00
2019-02-08T11:47:26.253Z,8392.00
2019-02-08T11:48:26.256Z,8600.00
2019-02-08T11:49:26.230Z,8512.00
2019-02-08T11:50:26.225Z,9564.00
2019-02-08T11:51:26.207Z,9400.00
2019-02-08T11:52:26.205Z,9608.00
2019-02-08T11:53:26.200Z,9496.00
2019-02-08T11:54:26.177Z,9620.00
2019-02-08T11:55:26.166Z,9108.00
2019-02-08T11:56:30.030Z,8460.00
2019-02-08T11:57:26.140Z,7940.00
2019-02-08T11:58:26.137Z,7068.00
2019-02-08T11:59:26.119Z,6596.00
2019-02-08T12:00:26.106Z,6392.00
2019-02-08T12:01:26.100Z,6076.00
2019-02-08T12:02:26.094Z,5800.00
2019-02-08T12:03:26.082Z,6276.00
2019-02-08T12:04:26.059Z,6480.00
2019-02-08T12:05:26.048Z,6280.00
2019-02-08T12:06:26.039Z,6384.00
2019-02-08T12:07:26.025Z,6032.00
2019-02-08T12:08:26.027Z,5732.00
2019-02-08T12:09:26.005Z,5192.00
2019-02-08T12:10:25.991Z,4792.00
2019-02-08T12:11:25.983Z,4912.00
2019-02-08T12:12:25.972Z,5436.00
2019-02-08T12:13:25.967Z,5684.00
2019-02-08T12:14:25.951Z,5844.00
2019-02-08T12:15:25.934Z,6204.00
2019-02-08T12:16:25.923Z,7136.00
2019-02-08T12:17:25.913Z,7900.00
2019-02-08T12:18:25.913Z,7784.00
2019-02-08T12:19:25.889Z,7324.00
2019-02-08T12:20:25.882Z,7128.00
2019-02-08T12:21:25.868Z,6796.00
2019-02-08T12:22:25.854Z,6576.00
2019-02-08T12:23:25.845Z,6700.00
2019-02-08T12:24:25.842Z,6176.00
2019-02-08T12:25:25.825Z,5728.00
2019-02-08T12:26:25.811Z,6164.00
2019-02-08T12:27:25.798Z,6668.00
2019-02-08T12:28:25.797Z,6936.00
2019-02-08T12:29:25.796Z,7416.00
2019-02-08T12:30:25.768Z,7872.00
2019-02-08T12:31:25.756Z,8056.00
2019-02-08T12:32:25.742Z,8752.00
2019-02-08T12:33:25.731Z,8600.00
2019-02-08T12:34:25.732Z,8736.00
2019-02-08T12:35:25.709Z,8372.00
2019-02-08T12:36:25.704Z,8028.00
2019-02-08T12:37:25.690Z,7748.00
2019-02-08T12:38:25.677Z,7616.00
2019-02-08T12:39:25.682Z,7776.00
2019-02-08T12:40:25.652Z,8352.00
2019-02-08T12:41:25.642Z,8064.00
2019-02-08T12:42:25.631Z,7608.00
2019-02-08T12:43:25.617Z,7312.00